createdAt,value
2023-03-07T00:01:25.797Z,5.30
2023-03-07T00:03:53.857Z,5.20
2023-03-07T00:06:21.715Z,5.40
2023-03-07T00:08:50.621Z,5.30
2023-03-07T00:11:20.440Z,5.30
2023-03-07T00:13:48.773Z,5.30
2023-03-07T00:16:18.393Z,5.20
2023-03-07T00:18:46.550Z,5.20
2023-03-07T00:21:17.016Z,5.20
2023-03-07T00:23:46.578Z,5.10
2023-03-07T00:26:16.251Z,5.20
2023-03-07T00:28:47.792Z,5.40
2023-03-07T00:31:16.070Z,5.00
2023-03-07T00:33:44.121Z,5.20
2023-03-07T00:36:14.174Z,5.00
2023-03-07T00:38:42.639Z,5.10
2023-03-07T00:41:12.270Z,5.20
2023-03-07T00:43:40.582Z,5.10
2023-03-07T00:46:10.883Z,5.10
2023-03-07T00:48:40.223Z,5.00
2023-03-07T00:51:09.868Z,4.80
2023-03-07T00:53:38.305Z,4.90
2023-03-07T00:56:08.199Z,4.80
2023-03-07T00:58:37.413Z,4.80
2023-03-07T01:01:06.721Z,4.90
2023-03-07T01:03:36.466Z,4.80
2023-03-07T01:06:04.912Z,4.90
2023-03-07T01:08:32.739Z,4.80
2023-03-07T01:11:01.885Z,4.80
2023-03-07T01:13:30.898Z,4.80
2023-03-07T01:16:08.149Z,4.60
2023-03-07T01:18:37.443Z,4.80
2023-03-07T01:21:12.840Z,4.90
2023-03-07T01:23:40.595Z,4.60
2023-03-07T01:26:08.332Z,4.60
2023-03-07T01:28:36.084Z,4.80
2023-03-07T01:31:04.031Z,4.70
2023-03-07T01:33:31.740Z,4.70
2023-03-07T01:36:00.897Z,5.00
2023-03-07T01:38:33.763Z,4.90
2023-03-07T01:41:02.081Z,4.60
2023-03-07T01:43:32.027Z,4.40
2023-03-07T01:46:35.077Z,4.40
2023-03-07T01:49:09.421Z,4.50
2023-03-07T01:51:41.747Z,4.70
2023-03-07T01:54:12.581Z,4.90
2023-03-07T01:56:40.846Z,4.90
2023-03-07T01:59:09.541Z,4.80
2023-03-07T02:01:38.181Z,4.80
2023-03-07T02:04:13.396Z,4.90
2023-03-07T02:06:42.481Z,4.90
2023-03-07T02:09:15.603Z,4.60
2023-03-07T02:11:45.178Z,4.60
2023-03-07T02:14:13.176Z,4.50
2023-03-07T02:16:41.466Z,4.50
2023-03-07T02:19:21.666Z,4.40
2023-03-07T02:22:00.990Z,4.60
2023-03-07T02:24:34.580Z,4.50
2023-03-07T02:27:03.700Z,4.40
2023-03-07T02:29:31.512Z,4.50
2023-03-07T02:31:59.224Z,4.50
2023-03-07T02:34:28.744Z,4.40
2023-03-07T02:37:01.934Z,4.60
2023-03-07T02:39:30.858Z,4.60
2023-03-07T02:42:01.479Z,4.40
2023-03-07T02:44:30.723Z,4.50
2023-03-07T02:46:58.440Z,4.50
2023-03-07T02:49:26.182Z,4.50
2023-03-07T02:51:57.499Z,4.50
2023-03-07T02:54:26.025Z,4.40
2023-03-07T02:56:54.018Z,4.40
2023-03-07T02:59:21.768Z,4.40
2023-03-07T03:01:50.918Z,4.60
2023-03-07T03:04:18.703Z,4.70
2023-03-07T03:06:46.442Z,4.60
2023-03-07T03:09:14.153Z,4.70
2023-03-07T03:11:41.886Z,4.60
2023-03-07T03:14:09.652Z,4.40
2023-03-07T03:16:37.441Z,4.40
2023-03-07T03:19:06.571Z,4.30
2023-03-07T03:21:34.328Z,4.30
2023-03-07T03:24:05.601Z,4.40
2023-03-07T03:26:33.692Z,4.30
2023-03-07T03:29:01.461Z,4.30
2023-03-07T03:31:30.361Z,4.40
2023-03-07T03:33:58.328Z,4.50
2023-03-07T03:36:28.288Z,4.40
2023-03-07T03:38:57.349Z,4.60
2023-03-07T03:41:25.742Z,4.60
2023-03-07T03:43:53.904Z,4.80
2023-03-07T03:46:21.796Z,5.00
2023-03-07T03:48:53.545Z,5.00
2023-03-07T03:51:21.613Z,4.80
2023-03-07T03:53:50.988Z,4.80
2023-03-07T03:56:20.438Z,4.90
2023-03-07T03:58:49.121Z,4.90
2023-03-07T04:01:17.320Z,5.00
2023-03-07T04:03:47.244Z,4.90
2023-03-07T04:06:18.496Z,4.90
2023-03-07T04:08:47.299Z,5.00
2023-03-07T04:11:16.481Z,5.20
2023-03-07T04:13:44.313Z,5.30
2023-03-07T04:16:12.126Z,5.30
2023-03-07T04:18:40.628Z,5.30
2023-03-07T04:21:08.512Z,5.20
2023-03-07T04:23:36.272Z,5.10
2023-03-07T04:26:06.377Z,5.00
2023-03-07T04:28:44.838Z,5.00
2023-03-07T04:31:14.081Z,5.30
2023-03-07T04:33:42.333Z,5.20
2023-03-07T04:36:10.860Z,5.10
2023-03-07T04:38:40.354Z,5.20
2023-03-07T04:41:08.957Z,5.10
2023-03-07T04:43:37.990Z,5.00
2023-03-07T04:46:06.398Z,5.20
2023-03-07T04:48:34.121Z,5.30
2023-03-07T04:51:01.858Z,5.40
2023-03-07T04:53:29.721Z,5.30
2023-03-07T04:55:59.518Z,5.20
2023-03-07T04:58:27.421Z,5.30
2023-03-07T05:00:57.718Z,5.40
2023-03-07T05:03:26.552Z,5.50
2023-03-07T05:05:55.045Z,5.60
2023-03-07T05:08:23.439Z,5.50
2023-03-07T05:10:51.314Z,5.40
2023-03-07T05:13:19.174Z,5.40
2023-03-07T05:15:52.426Z,5.50
2023-03-07T05:18:22.265Z,5.40
2023-03-07T05:20:50.786Z,5.50
2023-03-07T05:23:19.711Z,5.80
2023-03-07T05:25:47.816Z,5.50
2023-03-07T05:28:16.809Z,5.60
2023-03-07T05:30:44.928Z,5.50
2023-03-07T05:33:12.786Z,5.50
2023-03-07T05:35:41.899Z,5.50
2023-03-07T05:38:09.723Z,5.50
2023-03-07T05:40:37.802Z,5.70
2023-03-07T05:43:05.826Z,5.60
2023-03-07T05:45:33.565Z,5.70
2023-03-07T05:48:01.269Z,5.60
2023-03-07T05:50:29.128Z,5.60
2023-03-07T05:52:58.192Z,5.60
2023-03-07T05:55:26.050Z,5.50
2023-03-07T05:57:53.765Z,5.70
2023-03-07T06:00:22.649Z,5.60
2023-03-07T06:02:50.386Z,5.70
2023-03-07T06:05:18.346Z,5.70
2023-03-07T06:07:46.107Z,5.60
2023-03-07T06:10:15.183Z,5.40
2023-03-07T06:12:42.982Z,5.40
2023-03-07T06:15:11.219Z,5.60
2023-03-07T06:17:40.687Z,5.70
2023-03-07T06:20:09.909Z,5.60
2023-03-07T06:22:38.169Z,5.80
2023-03-07T06:25:06.710Z,5.90
2023-03-07T06:27:37.004Z,5.90
2023-03-07T06:30:06.703Z,5.80
2023-03-07T06:32:34.614Z,5.60
2023-03-07T06:35:02.392Z,5.70
2023-03-07T06:37:30.184Z,5.80
2023-03-07T06:39:58.042Z,5.60
2023-03-07T06:42:25.870Z,5.60
2023-03-07T06:44:54.991Z,5.50
2023-03-07T06:47:22.777Z,5.60
2023-03-07T06:49:50.501Z,5.50
2023-03-07T06:52:18.245Z,5.70
2023-03-07T06:54:46.034Z,5.70
2023-03-07T06:57:13.762Z,5.70
2023-03-07T06:59:41.526Z,5.70
2023-03-07T07:02:15.984Z,5.90
2023-03-07T07:04:43.845Z,5.90
2023-03-07T07:07:11.603Z,5.80
2023-03-07T07:09:39.355Z,5.80
2023-03-07T07:12:07.800Z,5.80
2023-03-07T07:14:35.686Z,5.80
2023-03-07T07:17:03.545Z,5.90
2023-03-07T07:19:32.919Z,5.90
2023-03-07T07:22:00.655Z,6.00
2023-03-07T07:24:28.369Z,5.80
2023-03-07T07:26:56.631Z,5.90
2023-03-07T07:29:24.901Z,5.90
2023-03-07T07:31:52.749Z,5.90
2023-03-07T07:34:20.521Z,6.00
2023-03-07T07:36:50.633Z,6.20
2023-03-07T07:39:18.378Z,6.10
2023-03-07T07:41:47.858Z,6.20
2023-03-07T07:44:15.608Z,6.20
2023-03-07T07:46:43.323Z,6.20
2023-03-07T07:49:11.074Z,6.30
2023-03-07T07:51:40.763Z,6.30
2023-03-07T07:54:10.466Z,6.30
2023-03-07T07:56:38.208Z,6.20
2023-03-07T07:59:05.950Z,6.30
2023-03-07T08:01:33.955Z,6.50
2023-03-07T08:04:01.694Z,6.40
2023-03-07T08:06:30.788Z,6.40
2023-03-07T08:09:00.029Z,6.50
2023-03-07T08:11:29.181Z,6.40
2023-03-07T08:13:56.920Z,6.50
2023-03-07T08:16:24.881Z,6.40
2023-03-07T08:18:54.370Z,6.60
2023-03-07T08:21:22.361Z,6.60
2023-03-07T08:23:50.085Z,6.70
2023-03-07T08:26:18.523Z,6.70
2023-03-07T08:28:47.877Z,6.70
2023-03-07T08:31:18.708Z,6.90
2023-03-07T08:33:48.066Z,7.00
2023-03-07T08:36:16.504Z,6.70
2023-03-07T08:38:44.539Z,6.60
2023-03-07T08:41:12.294Z,6.70
2023-03-07T08:43:40.198Z,6.70
2023-03-07T08:46:09.370Z,6.70
2023-03-07T08:48:37.109Z,6.50
2023-03-07T08:51:06.997Z,6.50
2023-03-07T08:53:34.966Z,6.60
2023-03-07T08:56:07.331Z,6.60
2023-03-07T08:58:35.142Z,6.60
2023-03-07T09:01:03.554Z,6.70
2023-03-07T09:03:33.113Z,6.60
2023-03-07T09:06:01.208Z,6.70
2023-03-07T09:08:29.024Z,6.50
2023-03-07T09:10:59.657Z,6.50
2023-03-07T09:13:27.473Z,6.50
2023-03-07T09:15:55.242Z,6.40
2023-03-07T09:18:23.443Z,6.40
2023-03-07T09:20:52.535Z,6.30
2023-03-07T09:23:20.265Z,5.90
2023-03-07T09:25:48.017Z,5.90
2023-03-07T09:28:15.836Z,5.60
2023-03-07T09:30:43.724Z,5.50
2023-03-07T09:33:11.497Z,5.50
2023-03-07T09:35:39.865Z,5.60
2023-03-07T09:38:08.992Z,5.40
2023-03-07T09:40:38.292Z,5.40
2023-03-07T09:43:14.683Z,5.60
2023-03-07T09:45:54.457Z,5.70
2023-03-07T09:48:43.628Z,5.70
2023-03-07T09:51:17.882Z,5.70
2023-03-07T09:53:51.497Z,5.40
2023-03-07T09:56:24.676Z,5.30
2023-03-07T09:58:57.721Z,5.10
2023-03-07T10:01:28.625Z,5.30
2023-03-07T10:04:01.829Z,5.40
2023-03-07T10:06:34.707Z,5.50
2023-03-07T10:09:06.183Z,5.40
2023-03-07T10:11:54.112Z,5.30
2023-03-07T10:14:38.886Z,5.30
2023-03-07T10:17:17.350Z,5.30
2023-03-07T10:19:50.260Z,5.30
2023-03-07T10:22:23.198Z,5.00
2023-03-07T10:25:06.193Z,5.00
2023-03-07T10:27:34.730Z,5.20
2023-03-07T10:30:09.966Z,5.20
2023-03-07T10:32:41.460Z,5.20
2023-03-07T10:35:19.047Z,5.40
2023-03-07T10:37:51.197Z,5.10
2023-03-07T10:40:32.092Z,4.80
2023-03-07T10:43:00.598Z,4.40
2023-03-07T10:45:31.944Z,4.40
2023-03-07T10:48:00.861Z,4.30
2023-03-07T10:50:36.464Z,4.20
2023-03-07T10:53:06.469Z,4.50
2023-03-07T10:55:41.230Z,4.50
2023-03-07T10:58:27.654Z,4.20
2023-03-07T11:01:12.272Z,4.20
2023-03-07T11:03:52.789Z,4.20
2023-03-07T11:06:37.152Z,4.20
2023-03-07T11:09:16.797Z,4.20
2023-03-07T11:11:52.515Z,4.00
2023-03-07T11:14:21.736Z,4.00
2023-03-07T11:16:52.153Z,4.00
2023-03-07T11:19:29.966Z,4.10
2023-03-07T11:21:59.674Z,4.30
2023-03-07T11:24:29.953Z,4.40
2023-03-07T11:27:00.769Z,4.50
2023-03-07T11:29:29.270Z,4.30
2023-03-07T11:32:05.859Z,4.20
2023-03-07T11:34:40.687Z,4.20
2023-03-07T11:37:27.518Z,4.40
2023-03-07T11:40:16.526Z,4.40
2023-03-07T11:42:53.106Z,4.20
2023-03-07T11:45:34.318Z,4.20
2023-03-07T11:48:13.306Z,4.30
2023-03-07T11:50:43.416Z,3.90
2023-03-07T11:53:30.195Z,4.00
2023-03-07T11:56:16.404Z,4.30
2023-03-07T11:59:17.114Z,4.20
2023-03-07T12:01:51.891Z,4.00
2023-03-07T12:04:44.495Z,3.90
2023-03-07T12:07:39.150Z,3.90
2023-03-07T12:10:13.583Z,4.00
2023-03-07T12:12:54.986Z,4.10
2023-03-07T12:15:35.999Z,4.10
2023-03-07T12:18:24.642Z,4.00
2023-03-07T12:21:04.353Z,3.70
2023-03-07T12:23:37.909Z,3.80
2023-03-07T12:26:12.879Z,3.80
2023-03-07T12:28:46.453Z,4.10
2023-03-07T12:31:18.774Z,3.90
2023-03-07T12:33:57.522Z,3.70
2023-03-07T12:36:34.030Z,3.90
2023-03-07T12:39:09.049Z,3.80
2023-03-07T12:41:47.156Z,4.10
2023-03-07T12:44:19.682Z,4.20
2023-03-07T12:46:52.203Z,4.20
2023-03-07T12:49:32.271Z,4.30
2023-03-07T12:52:09.456Z,4.60
2023-03-07T12:54:40.515Z,4.60
2023-03-07T12:57:12.678Z,4.40
2023-03-07T12:59:44.448Z,4.50
2023-03-07T13:02:14.792Z,4.50
2023-03-07T13:04:44.192Z,4.40
2023-03-07T13:07:16.449Z,4.30
2023-03-07T13:09:46.444Z,4.00
2023-03-07T13:12:33.035Z,4.00
2023-03-07T13:15:02.162Z,4.10
2023-03-07T13:18:01.921Z,4.40
2023-03-07T13:20:42.848Z,4.60
2023-03-07T13:23:28.557Z,4.70
2023-03-07T13:26:14.036Z,4.60
2023-03-07T13:28:53.012Z,4.50
2023-03-07T13:31:45.142Z,4.70
2023-03-07T13:34:46.671Z,4.80
2023-03-07T13:37:53.478Z,4.70
2023-03-07T13:40:56.369Z,5.00
2023-03-07T13:44:01.313Z,4.80
2023-03-07T13:46:47.723Z,4.60
2023-03-07T13:49:45.814Z,4.40
2023-03-07T13:52:44.034Z,4.20
2023-03-07T13:55:26.554Z,4.10
2023-03-07T13:57:57.634Z,4.00
2023-03-07T14:00:34.976Z,3.90
2023-03-07T14:03:02.998Z,4.20
2023-03-07T14:05:34.305Z,4.40
2023-03-07T14:08:03.688Z,4.40
2023-03-07T14:10:32.674Z,4.00
2023-03-07T14:13:20.325Z,4.00
2023-03-07T14:16:01.690Z,4.00
2023-03-07T14:18:43.370Z,3.70
2023-03-07T14:21:20.918Z,4.00
2023-03-07T14:24:08.418Z,4.20
2023-03-07T14:26:38.774Z,4.10
2023-03-07T14:29:16.788Z,3.90
2023-03-07T14:31:47.794Z,4.00
2023-03-07T14:34:26.180Z,4.00
2023-03-07T14:36:56.084Z,4.20
2023-03-07T14:39:25.671Z,4.20
2023-03-07T14:42:06.431Z,4.40
2023-03-07T14:44:55.807Z,4.30
2023-03-07T14:47:47.497Z,4.60
2023-03-07T14:50:18.695Z,4.70
2023-03-07T14:52:47.660Z,4.80
2023-03-07T14:55:18.617Z,4.70
2023-03-07T14:57:49.524Z,4.70
2023-03-07T15:00:24.725Z,4.90
2023-03-07T15:02:55.432Z,4.90
2023-03-07T15:05:25.718Z,4.90
2023-03-07T15:07:54.842Z,4.80
2023-03-07T15:10:27.526Z,4.80
2023-03-07T15:12:57.236Z,4.90
2023-03-07T15:15:29.908Z,5.10
2023-03-07T15:18:03.987Z,4.80
2023-03-07T15:20:32.496Z,4.90
2023-03-07T15:23:05.045Z,4.90
2023-03-07T15:25:33.579Z,4.70
2023-03-07T15:28:04.301Z,4.80
2023-03-07T15:30:34.877Z,4.70
2023-03-07T15:33:25.732Z,4.90
2023-03-07T15:36:26.658Z,4.80
2023-03-07T15:39:13.640Z,4.80
2023-03-07T15:41:41.373Z,5.20
2023-03-07T15:44:21.223Z,5.10
2023-03-07T15:46:51.276Z,4.90
2023-03-07T15:49:23.530Z,5.00
2023-03-07T15:51:54.224Z,5.00
2023-03-07T15:54:31.847Z,5.00
2023-03-07T15:57:04.206Z,4.90
2023-03-07T15:59:34.917Z,4.90
2023-03-07T16:02:34.877Z,5.00
2023-03-07T16:05:06.613Z,4.90
2023-03-07T16:07:34.415Z,4.80
2023-03-07T16:10:02.244Z,4.80
2023-03-07T16:12:30.021Z,4.90
2023-03-07T16:14:58.995Z,5.00
2023-03-07T16:17:32.625Z,5.00
2023-03-07T16:20:00.355Z,4.90
2023-03-07T16:22:30.772Z,4.90
2023-03-07T16:24:58.836Z,5.00
2023-03-07T16:27:26.654Z,4.90
2023-03-07T16:29:54.794Z,4.70
2023-03-07T16:32:23.573Z,4.80
2023-03-07T16:34:51.697Z,4.50
2023-03-07T16:37:20.547Z,4.40
2023-03-07T16:39:49.622Z,4.20
2023-03-07T16:42:20.768Z,4.30
2023-03-07T16:44:49.345Z,4.40
2023-03-07T16:47:18.612Z,4.40
2023-03-07T16:49:46.882Z,4.40
2023-03-07T16:52:15.535Z,4.10
2023-03-07T16:54:43.402Z,3.70
2023-03-07T16:57:15.991Z,3.40
2023-03-07T16:59:46.958Z,3.40
2023-03-07T17:02:17.502Z,3.50
2023-03-07T17:04:45.892Z,3.50
2023-03-07T17:07:17.906Z,3.40
2023-03-07T17:09:46.156Z,3.10
2023-03-07T17:12:15.704Z,3.10
2023-03-07T17:14:44.379Z,3.30
2023-03-07T17:17:17.727Z,2.90
2023-03-07T17:19:45.457Z,2.60
2023-03-07T17:22:13.247Z,2.70
2023-03-07T17:24:40.970Z,3.10
2023-03-07T17:27:09.516Z,3.30
2023-03-07T17:29:41.276Z,3.20
2023-03-07T17:32:09.728Z,3.40
2023-03-07T17:34:38.694Z,3.70
2023-03-07T17:37:07.769Z,3.90
2023-03-07T17:39:36.006Z,4.00
2023-03-07T17:42:04.025Z,4.00
2023-03-07T17:44:32.531Z,3.70
2023-03-07T17:47:01.790Z,3.70
2023-03-07T17:49:33.944Z,3.70
2023-03-07T17:52:01.656Z,3.70
2023-03-07T17:54:29.378Z,3.60
2023-03-07T17:56:57.181Z,3.80
2023-03-07T17:59:24.953Z,3.60
2023-03-07T18:01:52.668Z,3.30
2023-03-07T18:04:21.721Z,3.40
2023-03-07T18:06:49.485Z,3.30
2023-03-07T18:09:18.671Z,3.40
2023-03-07T18:11:46.399Z,3.40
2023-03-07T18:14:14.138Z,3.60
2023-03-07T18:16:43.743Z,3.80
2023-03-07T18:19:23.974Z,3.90
2023-03-07T18:21:55.262Z,3.90
2023-03-07T18:24:26.060Z,4.00
2023-03-07T18:26:54.424Z,3.70
2023-03-07T18:29:22.729Z,3.80
2023-03-07T18:31:50.743Z,4.00
2023-03-07T18:34:18.594Z,4.20
2023-03-07T18:36:47.842Z,4.20
2023-03-07T18:39:16.881Z,4.30
2023-03-07T18:41:44.725Z,4.00
2023-03-07T18:44:12.623Z,4.00
2023-03-07T18:46:40.362Z,4.10
2023-03-07T18:49:08.092Z,4.00
2023-03-07T18:51:35.801Z,4.00
2023-03-07T18:54:03.934Z,4.00
2023-03-07T18:56:33.390Z,3.90
2023-03-07T18:59:01.211Z,3.70
2023-03-07T19:01:30.532Z,3.70
2023-03-07T19:04:02.151Z,3.70
2023-03-07T19:06:33.590Z,3.80
2023-03-07T19:09:03.422Z,4.00
2023-03-07T19:11:33.088Z,3.70
2023-03-07T19:14:00.844Z,3.60
2023-03-07T19:16:29.384Z,3.80
2023-03-07T19:18:59.467Z,3.90
2023-03-07T19:21:29.467Z,4.00
2023-03-07T19:23:58.899Z,3.80
2023-03-07T19:26:27.247Z,3.80
2023-03-07T19:28:58.121Z,3.80
2023-03-07T19:31:27.965Z,4.00
2023-03-07T19:33:56.761Z,3.90
2023-03-07T19:36:27.434Z,3.80
2023-03-07T19:38:58.851Z,3.70
2023-03-07T19:41:27.986Z,3.70
2023-03-07T19:43:58.739Z,3.40
2023-03-07T19:46:26.947Z,3.40
2023-03-07T19:48:55.016Z,3.40
2023-03-07T19:51:24.862Z,3.30
2023-03-07T19:53:55.320Z,3.40
2023-03-07T19:56:27.098Z,3.50
2023-03-07T19:58:55.352Z,3.60
2023-03-07T20:01:25.439Z,3.60
2023-03-07T20:03:54.287Z,3.90
2023-03-07T20:06:24.071Z,4.00
2023-03-07T20:08:53.268Z,3.80
2023-03-07T20:11:25.692Z,3.80
2023-03-07T20:13:56.115Z,3.90
2023-03-07T20:16:28.900Z,3.80
2023-03-07T20:18:58.122Z,3.80
2023-03-07T20:21:28.368Z,3.80
2023-03-07T20:24:02.077Z,3.90
2023-03-07T20:26:32.441Z,3.90
2023-03-07T20:29:01.665Z,3.80
2023-03-07T20:31:31.793Z,3.70
2023-03-07T20:34:00.914Z,3.80
2023-03-07T20:36:32.155Z,4.00
2023-03-07T20:39:01.267Z,4.10
2023-03-07T20:41:30.811Z,4.10
2023-03-07T20:43:59.923Z,4.20
2023-03-07T20:46:27.801Z,4.30
2023-03-07T20:48:58.121Z,4.30
2023-03-07T20:51:28.769Z,4.20
2023-03-07T20:53:58.707Z,4.10
2023-03-07T20:56:27.667Z,4.10
2023-03-07T20:58:56.161Z,4.20
2023-03-07T21:01:26.264Z,4.20
2023-03-07T21:03:54.644Z,4.20
2023-03-07T21:06:23.745Z,4.30
2023-03-07T21:08:51.436Z,4.30
2023-03-07T21:11:21.575Z,4.40
2023-03-07T21:13:50.303Z,4.20
2023-03-07T21:16:19.596Z,4.20
2023-03-07T21:18:47.629Z,4.20
2023-03-07T21:21:18.042Z,4.20
2023-03-07T21:23:47.444Z,4.10
2023-03-07T21:26:17.372Z,4.00
2023-03-07T21:28:45.365Z,4.10
2023-03-07T21:31:18.380Z,4.10
2023-03-07T21:33:48.050Z,4.20
2023-03-07T21:36:16.521Z,4.30
2023-03-07T21:38:45.703Z,4.20
2023-03-07T21:41:16.016Z,4.30
2023-03-07T21:43:44.251Z,4.30
2023-03-07T21:46:14.372Z,4.30
2023-03-07T21:48:42.661Z,4.20
2023-03-07T21:51:11.200Z,4.20
2023-03-07T21:53:39.047Z,4.20
2023-03-07T21:56:08.633Z,4.10
2023-03-07T21:58:39.542Z,4.20
2023-03-07T22:01:12.321Z,4.20
2023-03-07T22:03:40.608Z,4.30
2023-03-07T22:06:10.014Z,4.30
2023-03-07T22:08:38.171Z,4.30
2023-03-07T22:11:08.229Z,4.20
2023-03-07T22:13:39.426Z,4.20
2023-03-07T22:16:09.465Z,4.30
2023-03-07T22:18:37.333Z,4.40
2023-03-07T22:21:09.570Z,4.40
2023-03-07T22:23:37.541Z,4.40
2023-03-07T22:26:06.763Z,4.40
2023-03-07T22:28:35.303Z,4.30
2023-03-07T22:31:06.478Z,4.20
2023-03-07T22:33:34.331Z,4.30
2023-03-07T22:36:04.179Z,4.20
2023-03-07T22:38:32.090Z,4.20
2023-03-07T22:41:03.357Z,4.30
2023-03-07T22:43:32.383Z,4.30
2023-03-07T22:46:00.350Z,4.40
2023-03-07T22:48:30.050Z,4.50
2023-03-07T22:50:58.187Z,4.40
2023-03-07T22:53:28.598Z,4.40
2023-03-07T22:55:56.502Z,4.30
2023-03-07T22:58:24.181Z,4.20
2023-03-07T23:00:52.596Z,4.20
2023-03-07T23:03:20.467Z,4.30
2023-03-07T23:05:49.553Z,4.30
2023-03-07T23:08:17.384Z,4.30
2023-03-07T23:10:45.167Z,4.30
2023-03-07T23:13:12.892Z,4.30
2023-03-07T23:15:41.482Z,4.20
2023-03-07T23:18:09.609Z,4.20
2023-03-07T23:20:38.774Z,4.30
2023-03-07T23:23:07.857Z,4.40
2023-03-07T23:25:40.127Z,4.30
2023-03-07T23:28:07.846Z,4.10
2023-03-07T23:30:36.500Z,4.20
2023-03-07T23:33:04.678Z,4.10
2023-03-07T23:35:33.445Z,4.00
2023-03-07T23:38:01.321Z,4.20
2023-03-07T23:40:30.474Z,4.10
2023-03-07T23:42:58.965Z,4.20
2023-03-07T23:45:27.633Z,4.10
2023-03-07T23:47:55.600Z,4.20
2023-03-07T23:50:23.350Z,4.20
2023-03-07T23:52:51.103Z,4.20
2023-03-07T23:55:18.996Z,4.20
2023-03-07T23:57:48.602Z,4.10
